sensor_id;sensor_type;location;lat;lon;timestamp;P1;durP1;ratioP1;P2;durP2;ratioP2
5965;SDS011;3009;43.224;27.976;2022-08-20T00:02:12;39.70;;;11.00;;
5965;SDS011;3009;43.224;27.976;2022-08-20T00:04:42;11.23;;;9.80;;
5965;SDS011;3009;43.224;27.976;2022-08-20T00:07:10;10.80;;;9.90;;
5965;SDS011;3009;43.224;27.976;2022-08-20T00:09:39;10.40;;;9.30;;
5965;SDS011;3009;43.224;27.976;2022-08-20T00:12:08;13.00;;;9.80;;
5965;SDS011;3009;43.224;27.976;2022-08-20T00:14:38;10.97;;;9.53;;
5965;SDS011;3009;43.224;27.976;2022-08-20T00:17:07;12.13;;;8.90;;
5965;SDS011;3009;43.224;27.976;2022-08-20T00:19:36;24.13;;;9.70;;
5965;SDS011;3009;43.224;27.976;2022-08-20T00:22:04;15.33;;;9.57;;
5965;SDS011;3009;43.224;27.976;2022-08-20T00:24:33;12.10;;;9.47;;
5965;SDS011;3009;43.224;27.976;2022-08-20T00:27:01;15.63;;;10.23;;
5965;SDS011;3009;43.224;27.976;2022-08-20T00:29:29;10.47;;;9.40;;
5965;SDS011;3009;43.224;27.976;2022-08-20T00:31:58;10.63;;;9.40;;
5965;SDS011;3009;43.224;27.976;2022-08-20T00:34:28;11.23;;;9.07;;
5965;SDS011;3009;43.224;27.976;2022-08-20T00:36:56;9.70;;;8.50;;
5965;SDS011;3009;43.224;27.976;2022-08-20T00:39:24;14.20;;;9.60;;
5965;SDS011;3009;43.224;27.976;2022-08-20T00:41:54;11.33;;;9.30;;
5965;SDS011;3009;43.224;27.976;2022-08-20T00:44:22;17.57;;;10.50;;
5965;SDS011;3009;43.224;27.976;2022-08-20T00:46:51;18.30;;;10.40;;
5965;SDS011;3009;43.224;27.976;2022-08-20T00:49:21;16.17;;;9.80;;
5965;SDS011;3009;43.224;27.976;2022-08-20T00:52:01;16.83;;;9.37;;
5965;SDS011;3009;43.224;27.976;2022-08-20T00:54:34;21.47;;;9.53;;
5965;SDS011;3009;43.224;27.976;2022-08-20T00:57:06;12.07;;;9.50;;
5965;SDS011;3009;43.224;27.976;2022-08-20T00:59:38;10.80;;;8.97;;
5965;SDS011;3009;43.224;27.976;2022-08-20T01:02:10;14.77;;;9.50;;
5965;SDS011;3009;43.224;27.976;2022-08-20T01:04:43;14.63;;;8.57;;
5965;SDS011;3009;43.224;27.976;2022-08-20T01:07:15;19.97;;;10.17;;
5965;SDS011;3009;43.224;27.976;2022-08-20T01:09:46;14.10;;;9.50;;
5965;SDS011;3009;43.224;27.976;2022-08-20T01:12:25;19.70;;;9.80;;
5965;SDS011;3009;43.224;27.976;2022-08-20T01:14:55;13.37;;;9.50;;
5965;SDS011;3009;43.224;27.976;2022-08-20T01:17:27;13.53;;;9.90;;
5965;SDS011;3009;43.224;27.976;2022-08-20T01:20:01;15.70;;;9.50;;
5965;SDS011;3009;43.224;27.976;2022-08-20T01:22:37;14.20;;;9.23;;
5965;SDS011;3009;43.224;27.976;2022-08-20T01:25:29;16.90;;;10.87;;
5965;SDS011;3009;43.224;27.976;2022-08-20T01:28:08;10.30;;;9.30;;
5965;SDS011;3009;43.224;27.976;2022-08-20T01:30:37;14.10;;;10.40;;
5965;SDS011;3009;43.224;27.976;2022-08-20T01:33:05;13.50;;;10.13;;
5965;SDS011;3009;43.224;27.976;2022-08-20T01:35:35;17.53;;;9.87;;
5965;SDS011;3009;43.224;27.976;2022-08-20T01:38:04;20.07;;;10.70;;
5965;SDS011;3009;43.224;27.976;2022-08-20T01:43:27;10.67;;;9.80;;
5965;SDS011;3009;43.224;27.976;2022-08-20T01:46:02;11.33;;;10.17;;
5965;SDS011;3009;43.224;27.976;2022-08-20T01:48:31;16.03;;;11.03;;
5965;SDS011;3009;43.224;27.976;2022-08-20T01:51:02;14.03;;;10.90;;
5965;SDS011;3009;43.224;27.976;2022-08-20T01:53:35;11.00;;;10.00;;
5965;SDS011;3009;43.224;27.976;2022-08-20T01:56:14;13.57;;;10.07;;
5965;SDS011;3009;43.224;27.976;2022-08-20T01:58:45;13.27;;;10.20;;
5965;SDS011;3009;43.224;27.976;2022-08-20T02:01:23;11.17;;;9.27;;
5965;SDS011;3009;43.224;27.976;2022-08-20T02:03:53;12.83;;;10.40;;
5965;SDS011;3009;43.224;27.976;2022-08-20T02:06:23;20.57;;;9.70;;
5965;SDS011;3009;43.224;27.976;2022-08-20T02:08:53;11.07;;;9.97;;
5965;SDS011;3009;43.224;27.976;2022-08-20T02:11:25;11.33;;;10.23;;
5965;SDS011;3009;43.224;27.976;2022-08-20T02:13:54;11.60;;;9.87;;
5965;SDS011;3009;43.224;27.976;2022-08-20T02:16:25;11.10;;;9.90;;
5965;SDS011;3009;43.224;27.976;2022-08-20T02:18:57;13.37;;;10.40;;
5965;SDS011;3009;43.224;27.976;2022-08-20T02:21:29;13.07;;;9.90;;
5965;SDS011;3009;43.224;27.976;2022-08-20T02:23:59;15.83;;;10.13;;
5965;SDS011;3009;43.224;27.976;2022-08-20T02:26:29;20.33;;;10.20;;
5965;SDS011;3009;43.224;27.976;2022-08-20T02:28:58;11.07;;;9.80;;
5965;SDS011;3009;43.224;27.976;2022-08-20T02:31:26;10.47;;;9.30;;
5965;SDS011;3009;43.224;27.976;2022-08-20T02:34:00;14.03;;;10.30;;
5965;SDS011;3009;43.224;27.976;2022-08-20T02:36:47;11.43;;;9.67;;
5965;SDS011;3009;43.224;27.976;2022-08-20T02:39:16;10.13;;;8.97;;
5965;SDS011;3009;43.224;27.976;2022-08-20T02:41:46;15.40;;;10.10;;
5965;SDS011;3009;43.224;27.976;2022-08-20T02:44:16;25.93;;;10.97;;
5965;SDS011;3009;43.224;27.976;2022-08-20T02:46:46;12.50;;;10.30;;
5965;SDS011;3009;43.224;27.976;2022-08-20T02:49:17;11.27;;;9.40;;
5965;SDS011;3009;43.224;27.976;2022-08-20T02:51:46;14.80;;;9.40;;
5965;SDS011;3009;43.224;27.976;2022-08-20T02:54:17;11.20;;;8.90;;
5965;SDS011;3009;43.224;27.976;2022-08-20T02:56:47;14.37;;;10.10;;
5965;SDS011;3009;43.224;27.976;2022-08-20T02:59:15;10.13;;;8.90;;
5965;SDS011;3009;43.224;27.976;2022-08-20T03:01:46;14.80;;;11.30;;
5965;SDS011;3009;43.224;27.976;2022-08-20T03:04:26;12.97;;;10.10;;
5965;SDS011;3009;43.224;27.976;2022-08-20T03:06:54;11.43;;;10.30;;
5965;SDS011;3009;43.224;27.976;2022-08-20T03:09:23;12.83;;;11.50;;
5965;SDS011;3009;43.224;27.976;2022-08-20T03:11:53;14.80;;;9.90;;
5965;SDS011;3009;43.224;27.976;2022-08-20T03:14:21;12.67;;;11.23;;
5965;SDS011;3009;43.224;27.976;2022-08-20T03:16:49;12.87;;;10.70;;
5965;SDS011;3009;43.224;27.976;2022-08-20T03:19:17;12.00;;;10.77;;
5965;SDS011;3009;43.224;27.976;2022-08-20T03:21:46;11.43;;;10.43;;
5965;SDS011;3009;43.224;27.976;2022-08-20T03:24:14;14.40;;;10.60;;
5965;SDS011;3009;43.224;27.976;2022-08-20T03:26:42;11.77;;;10.20;;
5965;SDS011;3009;43.224;27.976;2022-08-20T03:29:12;14.87;;;10.90;;
5965;SDS011;3009;43.224;27.976;2022-08-20T03:31:40;15.23;;;10.63;;
5965;SDS011;3009;43.224;27.976;2022-08-20T03:34:09;11.37;;;10.23;;
5965;SDS011;3009;43.224;27.976;2022-08-20T03:36:37;13.13;;;10.63;;
5965;SDS011;3009;43.224;27.976;2022-08-20T03:39:06;18.97;;;10.10;;
5965;SDS011;3009;43.224;27.976;2022-08-20T03:41:38;11.47;;;10.40;;
5965;SDS011;3009;43.224;27.976;2022-08-20T03:44:07;11.63;;;10.33;;
5965;SDS011;3009;43.224;27.976;2022-08-20T03:46:36;23.33;;;11.07;;
5965;SDS011;3009;43.224;27.976;2022-08-20T03:49:05;17.33;;;11.27;;
5965;SDS011;3009;43.224;27.976;2022-08-20T03:51:33;13.87;;;11.00;;
5965;SDS011;3009;43.224;27.976;2022-08-20T03:54:21;15.53;;;11.20;;
5965;SDS011;3009;43.224;27.976;2022-08-20T03:56:56;13.20;;;11.83;;
5965;SDS011;3009;43.224;27.976;2022-08-20T03:59:25;13.77;;;12.33;;
5965;SDS011;3009;43.224;27.976;2022-08-20T04:01:55;27.57;;;12.60;;
5965;SDS011;3009;43.224;27.976;2022-08-20T04:04:23;12.93;;;11.83;;
5965;SDS011;3009;43.224;27.976;2022-08-20T04:06:51;14.73;;;11.00;;
5965;SDS011;3009;43.224;27.976;2022-08-20T04:09:21;12.73;;;10.47;;
5965;SDS011;3009;43.224;27.976;2022-08-20T04:11:50;23.53;;;11.10;;
5965;SDS011;3009;43.224;27.976;2022-08-20T04:14:25;15.40;;;13.40;;
5965;SDS011;3009;43.224;27.976;2022-08-20T04:16:56;16.33;;;12.30;;
5965;SDS011;3009;43.224;27.976;2022-08-20T04:19:24;13.73;;;11.80;;
5965;SDS011;3009;43.224;27.976;2022-08-20T04:21:59;15.00;;;11.63;;
5965;SDS011;3009;43.224;27.976;2022-08-20T04:24:27;12.93;;;11.70;;
5965;SDS011;3009;43.224;27.976;2022-08-20T04:26:58;12.80;;;11.13;;
5965;SDS011;3009;43.224;27.976;2022-08-20T04:29:28;11.90;;;10.70;;
5965;SDS011;3009;43.224;27.976;2022-08-20T04:31:59;11.53;;;10.40;;
5965;SDS011;3009;43.224;27.976;2022-08-20T04:34:31;12.90;;;11.10;;
5965;SDS011;3009;43.224;27.976;2022-08-20T04:37:00;14.50;;;10.90;;
5965;SDS011;3009;43.224;27.976;2022-08-20T04:39:29;11.13;;;9.57;;
5965;SDS011;3009;43.224;27.976;2022-08-20T04:41:57;17.30;;;11.13;;
5965;SDS011;3009;43.224;27.976;2022-08-20T04:44:25;15.40;;;10.33;;
5965;SDS011;3009;43.224;27.976;2022-08-20T04:46:54;13.87;;;9.80;;
5965;SDS011;3009;43.224;27.976;2022-08-20T04:49:24;14.53;;;9.03;;
5965;SDS011;3009;43.224;27.976;2022-08-20T04:51:53;10.07;;;8.67;;
5965;SDS011;3009;43.224;27.976;2022-08-20T04:54:22;15.83;;;9.13;;
5965;SDS011;3009;43.224;27.976;2022-08-20T04:56:50;15.47;;;9.77;;
5965;SDS011;3009;43.224;27.976;2022-08-20T04:59:18;12.93;;;9.53;;
5965;SDS011;3009;43.224;27.976;2022-08-20T05:01:46;16.40;;;10.60;;
5965;SDS011;3009;43.224;27.976;2022-08-20T05:04:15;15.97;;;8.80;;
5965;SDS011;3009;43.224;27.976;2022-08-20T05:06:45;12.63;;;8.73;;
5965;SDS011;3009;43.224;27.976;2022-08-20T05:09:16;10.53;;;8.37;;
5965;SDS011;3009;43.224;27.976;2022-08-20T05:11:44;16.00;;;8.47;;
5965;SDS011;3009;43.224;27.976;2022-08-20T05:14:12;13.30;;;8.97;;
5965;SDS011;3009;43.224;27.976;2022-08-20T05:16:41;10.67;;;8.23;;
5965;SDS011;3009;43.224;27.976;2022-08-20T05:19:10;13.57;;;8.20;;
5965;SDS011;3009;43.224;27.976;2022-08-20T05:21:39;25.43;;;9.70;;
5965;SDS011;3009;43.224;27.976;2022-08-20T05:24:09;13.77;;;10.67;;
5965;SDS011;3009;43.224;27.976;2022-08-20T05:26:38;12.20;;;10.63;;
5965;SDS011;3009;43.224;27.976;2022-08-20T05:29:06;21.90;;;10.93;;
5965;SDS011;3009;43.224;27.976;2022-08-20T05:31:35;13.23;;;11.17;;
5965;SDS011;3009;43.224;27.976;2022-08-20T05:34:05;18.03;;;11.87;;
5965;SDS011;3009;43.224;27.976;2022-08-20T05:36:37;14.53;;;12.07;;
5965;SDS011;3009;43.224;27.976;2022-08-20T05:39:06;17.53;;;10.27;;
5965;SDS011;3009;43.224;27.976;2022-08-20T05:41:37;19.13;;;10.30;;
5965;SDS011;3009;43.224;27.976;2022-08-20T05:44:06;15.50;;;9.55;;
5965;SDS011;3009;43.224;27.976;2022-08-20T05:46:39;19.10;;;10.82;;
5965;SDS011;3009;43.224;27.976;2022-08-20T05:49:09;11.48;;;9.50;;
5965;SDS011;3009;43.224;27.976;2022-08-20T05:51:38;12.75;;;10.18;;
5965;SDS011;3009;43.224;27.976;2022-08-20T05:54:08;15.73;;;10.23;;
5965;SDS011;3009;43.224;27.976;2022-08-20T05:56:37;16.88;;;10.15;;
5965;SDS011;3009;43.224;27.976;2022-08-20T05:59:05;12.30;;;10.05;;
5965;SDS011;3009;43.224;27.976;2022-08-20T06:01:36;14.75;;;10.85;;
5965;SDS011;3009;43.224;27.976;2022-08-20T06:04:06;16.55;;;10.10;;
5965;SDS011;3009;43.224;27.976;2022-08-20T06:07:17;12.02;;;9.13;;
5965;SDS011;3009;43.224;27.976;2022-08-20T06:09:47;12.68;;;10.27;;
5965;SDS011;3009;43.224;27.976;2022-08-20T06:12:16;13.95;;;9.30;;
5965;SDS011;3009;43.224;27.976;2022-08-20T06:14:44;12.10;;;8.70;;
5965;SDS011;3009;43.224;27.976;2022-08-20T06:17:15;15.80;;;8.52;;
5965;SDS011;3009;43.224;27.976;2022-08-20T06:19:47;10.00;;;8.98;;
5965;SDS011;3009;43.224;27.976;2022-08-20T06:22:16;9.77;;;8.73;;
5965;SDS011;3009;43.224;27.976;2022-08-20T06:24:53;12.32;;;8.85;;
5965;SDS011;3009;43.224;27.976;2022-08-20T06:27:23;15.50;;;10.13;;
5965;SDS011;3009;43.224;27.976;2022-08-20T06:29:51;12.43;;;8.48;;
5965;SDS011;3009;43.224;27.976;2022-08-20T06:32:21;8.90;;;8.10;;
5965;SDS011;3009;43.224;27.976;2022-08-20T06:34:58;15.15;;;9.75;;
5965;SDS011;3009;43.224;27.976;2022-08-20T06:37:28;24.40;;;10.70;;
5965;SDS011;3009;43.224;27.976;2022-08-20T06:40:00;10.15;;;9.07;;
5965;SDS011;3009;43.224;27.976;2022-08-20T06:42:32;12.95;;;9.48;;
5965;SDS011;3009;43.224;27.976;2022-08-20T06:45:00;16.40;;;9.55;;
5965;SDS011;3009;43.224;27.976;2022-08-20T06:47:30;15.43;;;9.45;;
5965;SDS011;3009;43.224;27.976;2022-08-20T06:49:59;12.98;;;9.75;;
5965;SDS011;3009;43.224;27.976;2022-08-20T06:52:27;16.30;;;10.75;;
5965;SDS011;3009;43.224;27.976;2022-08-20T06:55:17;11.35;;;9.02;;
5965;SDS011;3009;43.224;27.976;2022-08-20T06:57:45;12.52;;;9.55;;
5965;SDS011;3009;43.224;27.976;2022-08-20T07:00:15;11.40;;;10.00;;
5965;SDS011;3009;43.224;27.976;2022-08-20T07:02:46;13.23;;;9.75;;
5965;SDS011;3009;43.224;27.976;2022-08-20T07:05:14;10.07;;;8.77;;
5965;SDS011;3009;43.224;27.976;2022-08-20T07:07:43;12.18;;;10.00;;
5965;SDS011;3009;43.224;27.976;2022-08-20T07:10:13;10.27;;;9.30;;
5965;SDS011;3009;43.224;27.976;2022-08-20T07:12:43;14.57;;;10.15;;
5965;SDS011;3009;43.224;27.976;2022-08-20T07:15:13;11.80;;;8.80;;
5965;SDS011;3009;43.224;27.976;2022-08-20T07:17:41;13.52;;;10.52;;
5965;SDS011;3009;43.224;27.976;2022-08-20T07:20:14;9.98;;;8.45;;
5965;SDS011;3009;43.224;27.976;2022-08-20T07:22:43;13.63;;;9.60;;
5965;SDS011;3009;43.224;27.976;2022-08-20T07:25:12;14.30;;;9.32;;
5965;SDS011;3009;43.224;27.976;2022-08-20T07:27:42;13.80;;;10.10;;
5965;SDS011;3009;43.224;27.976;2022-08-20T07:30:13;11.52;;;9.27;;
5965;SDS011;3009;43.224;27.976;2022-08-20T07:33:21;9.45;;;8.63;;
5965;SDS011;3009;43.224;27.976;2022-08-20T07:35:49;11.65;;;9.20;;
5965;SDS011;3009;43.224;27.976;2022-08-20T07:38:19;10.88;;;9.02;;
5965;SDS011;3009;43.224;27.976;2022-08-20T07:40:51;10.90;;;8.90;;
5965;SDS011;3009;43.224;27.976;2022-08-20T07:43:22;14.60;;;10.10;;
5965;SDS011;3009;43.224;27.976;2022-08-20T07:45:51;18.42;;;10.27;;
5965;SDS011;3009;43.224;27.976;2022-08-20T07:48:23;12.10;;;9.40;;
5965;SDS011;3009;43.224;27.976;2022-08-20T07:50:58;12.90;;;9.23;;
5965;SDS011;3009;43.224;27.976;2022-08-20T07:53:28;10.87;;;9.30;;
5965;SDS011;3009;43.224;27.976;2022-08-20T07:56:01;10.67;;;9.77;;
5965;SDS011;3009;43.224;27.976;2022-08-20T07:58:33;15.17;;;10.40;;
5965;SDS011;3009;43.224;27.976;2022-08-20T08:01:03;11.87;;;10.73;;
5965;SDS011;3009;43.224;27.976;2022-08-20T08:03:32;20.73;;;9.77;;
5965;SDS011;3009;43.224;27.976;2022-08-20T08:06:15;16.40;;;9.10;;
5965;SDS011;3009;43.224;27.976;2022-08-20T08:08:56;14.63;;;8.43;;
5965;SDS011;3009;43.224;27.976;2022-08-20T08:11:28;17.20;;;10.53;;
5965;SDS011;3009;43.224;27.976;2022-08-20T08:14:01;10.70;;;9.73;;
5965;SDS011;3009;43.224;27.976;2022-08-20T08:16:32;13.73;;;9.53;;
5965;SDS011;3009;43.224;27.976;2022-08-20T08:19:01;22.30;;;9.63;;
5965;SDS011;3009;43.224;27.976;2022-08-20T08:21:33;19.30;;;10.13;;
5965;SDS011;3009;43.224;27.976;2022-08-20T08:24:01;20.90;;;10.47;;
5965;SDS011;3009;43.224;27.976;2022-08-20T08:26:30;12.73;;;9.50;;
5965;SDS011;3009;43.224;27.976;2022-08-20T08:28:58;11.37;;;9.30;;
5965;SDS011;3009;43.224;27.976;2022-08-20T08:31:27;10.27;;;9.27;;
5965;SDS011;3009;43.224;27.976;2022-08-20T08:33:56;11.80;;;8.83;;
5965;SDS011;3009;43.224;27.976;2022-08-20T08:36:24;11.30;;;9.17;;
5965;SDS011;3009;43.224;27.976;2022-08-20T08:38:53;16.73;;;8.33;;
5965;SDS011;3009;43.224;27.976;2022-08-20T08:41:23;9.97;;;9.03;;
5965;SDS011;3009;43.224;27.976;2022-08-20T08:43:58;15.33;;;9.27;;
5965;SDS011;3009;43.224;27.976;2022-08-20T08:46:35;13.80;;;8.83;;
5965;SDS011;3009;43.224;27.976;2022-08-20T08:49:08;12.67;;;9.83;;
5965;SDS011;3009;43.224;27.976;2022-08-20T08:51:39;10.57;;;8.10;;
5965;SDS011;3009;43.224;27.976;2022-08-20T08:54:12;11.87;;;9.37;;
5965;SDS011;3009;43.224;27.976;2022-08-20T08:56:43;9.50;;;7.83;;
5965;SDS011;3009;43.224;27.976;2022-08-20T08:59:15;12.37;;;9.00;;
5965;SDS011;3009;43.224;27.976;2022-08-20T09:01:47;11.07;;;9.33;;
5965;SDS011;3009;43.224;27.976;2022-08-20T09:04:22;13.63;;;9.53;;
5965;SDS011;3009;43.224;27.976;2022-08-20T09:06:57;10.53;;;9.53;;
5965;SDS011;3009;43.224;27.976;2022-08-20T09:09:29;20.70;;;9.17;;
5965;SDS011;3009;43.224;27.976;2022-08-20T09:12:02;10.13;;;9.33;;
5965;SDS011;3009;43.224;27.976;2022-08-20T09:14:31;16.00;;;10.10;;
5965;SDS011;3009;43.224;27.976;2022-08-20T09:17:01;12.40;;;10.70;;
5965;SDS011;3009;43.224;27.976;2022-08-20T09:19:30;15.10;;;9.17;;
5965;SDS011;3009;43.224;27.976;2022-08-20T09:21:58;10.20;;;9.30;;
5965;SDS011;3009;43.224;27.976;2022-08-20T09:24:34;10.53;;;9.53;;
5965;SDS011;3009;43.224;27.976;2022-08-20T09:27:03;14.73;;;10.43;;
5965;SDS011;3009;43.224;27.976;2022-08-20T09:29:31;11.63;;;10.53;;
5965;SDS011;3009;43.224;27.976;2022-08-20T09:32:05;11.73;;;9.93;;
5965;SDS011;3009;43.224;27.976;2022-08-20T09:34:36;12.07;;;10.40;;
5965;SDS011;3009;43.224;27.976;2022-08-20T09:37:04;20.90;;;11.20;;
5965;SDS011;3009;43.224;27.976;2022-08-20T09:39:33;14.53;;;10.50;;
5965;SDS011;3009;43.224;27.976;2022-08-20T09:42:05;12.93;;;11.73;;
5965;SDS011;3009;43.224;27.976;2022-08-20T09:44:34;13.23;;;11.60;;
5965;SDS011;3009;43.224;27.976;2022-08-20T09:47:04;23.00;;;12.57;;
5965;SDS011;3009;43.224;27.976;2022-08-20T09:49:33;14.50;;;11.47;;
5965;SDS011;3009;43.224;27.976;2022-08-20T09:52:03;16.00;;;12.53;;
5965;SDS011;3009;43.224;27.976;2022-08-20T09:54:34;17.37;;;11.80;;
5965;SDS011;3009;43.224;27.976;2022-08-20T09:57:09;16.53;;;10.23;;
5965;SDS011;3009;43.224;27.976;2022-08-20T09:59:38;19.17;;;11.53;;
5965;SDS011;3009;43.224;27.976;2022-08-20T10:02:08;13.53;;;12.13;;
5965;SDS011;3009;43.224;27.976;2022-08-20T10:04:36;13.63;;;12.30;;
5965;SDS011;3009;43.224;27.976;2022-08-20T10:07:06;16.80;;;11.27;;
5965;SDS011;3009;43.224;27.976;2022-08-20T10:09:35;13.07;;;11.70;;
5965;SDS011;3009;43.224;27.976;2022-08-20T10:12:05;14.47;;;12.20;;
5965;SDS011;3009;43.224;27.976;2022-08-20T10:14:34;23.47;;;12.33;;
5965;SDS011;3009;43.224;27.976;2022-08-20T10:17:02;18.67;;;13.00;;
5965;SDS011;3009;43.224;27.976;2022-08-20T10:19:32;19.73;;;11.90;;
5965;SDS011;3009;43.224;27.976;2022-08-20T10:22:00;17.47;;;11.57;;
5965;SDS011;3009;43.224;27.976;2022-08-20T10:24:28;20.53;;;12.20;;
5965;SDS011;3009;43.224;27.976;2022-08-20T10:26:57;15.03;;;12.07;;
5965;SDS011;3009;43.224;27.976;2022-08-20T10:29:27;12.73;;;11.43;;
5965;SDS011;3009;43.224;27.976;2022-08-20T10:31:56;11.90;;;10.80;;
5965;SDS011;3009;43.224;27.976;2022-08-20T10:34:36;11.13;;;10.23;;
5965;SDS011;3009;43.224;27.976;2022-08-20T10:37:04;12.77;;;11.33;;
5965;SDS011;3009;43.224;27.976;2022-08-20T10:39:33;20.87;;;10.87;;
5965;SDS011;3009;43.224;27.976;2022-08-20T10:42:01;13.80;;;12.50;;
5965;SDS011;3009;43.224;27.976;2022-08-20T10:44:30;19.93;;;11.17;;
5965;SDS011;3009;43.224;27.976;2022-08-20T10:47:01;14.13;;;12.57;;
5965;SDS011;3009;43.224;27.976;2022-08-20T10:49:42;19.13;;;12.17;;
5965;SDS011;3009;43.224;27.976;2022-08-20T10:52:10;17.43;;;12.87;;
5965;SDS011;3009;43.224;27.976;2022-08-20T10:54:38;17.60;;;12.43;;
5965;SDS011;3009;43.224;27.976;2022-08-20T10:57:08;18.97;;;13.10;;
5965;SDS011;3009;43.224;27.976;2022-08-20T10:59:40;16.00;;;14.03;;
5965;SDS011;3009;43.224;27.976;2022-08-20T11:02:10;19.70;;;13.33;;
5965;SDS011;3009;43.224;27.976;2022-08-20T11:04:38;17.30;;;12.70;;
5965;SDS011;3009;43.224;27.976;2022-08-20T11:07:16;20.37;;;12.10;;
5965;SDS011;3009;43.224;27.976;2022-08-20T11:09:46;14.87;;;11.40;;
5965;SDS011;3009;43.224;27.976;2022-08-20T11:12:16;15.00;;;11.87;;
5965;SDS011;3009;43.224;27.976;2022-08-20T11:14:46;18.90;;;12.50;;
5965;SDS011;3009;43.224;27.976;2022-08-20T11:17:18;14.37;;;12.70;;
5965;SDS011;3009;43.224;27.976;2022-08-20T11:19:47;16.77;;;12.80;;
5965;SDS011;3009;43.224;27.976;2022-08-20T11:22:17;14.43;;;12.57;;
5965;SDS011;3009;43.224;27.976;2022-08-20T11:24:45;14.40;;;11.90;;
5965;SDS011;3009;43.224;27.976;2022-08-20T11:27:14;15.37;;;12.67;;
5965;SDS011;3009;43.224;27.976;2022-08-20T11:29:50;14.70;;;12.43;;
5965;SDS011;3009;43.224;27.976;2022-08-20T11:32:19;13.47;;;12.13;;
5965;SDS011;3009;43.224;27.976;2022-08-20T11:34:48;12.90;;;11.80;;
5965;SDS011;3009;43.224;27.976;2022-08-20T11:37:19;26.53;;;11.63;;
5965;SDS011;3009;43.224;27.976;2022-08-20T11:39:50;12.93;;;11.47;;
5965;SDS011;3009;43.224;27.976;2022-08-20T11:42:19;14.00;;;11.40;;
5965;SDS011;3009;43.224;27.976;2022-08-20T11:44:47;12.63;;;11.33;;
5965;SDS011;3009;43.224;27.976;2022-08-20T11:47:19;18.47;;;11.60;;
5965;SDS011;3009;43.224;27.976;2022-08-20T11:49:54;15.23;;;11.87;;
5965;SDS011;3009;43.224;27.976;2022-08-20T11:52:26;12.40;;;11.30;;
5965;SDS011;3009;43.224;27.976;2022-08-20T11:54:55;12.30;;;11.10;;
5965;SDS011;3009;43.224;27.976;2022-08-20T11:57:26;14.10;;;11.50;;
5965;SDS011;3009;43.224;27.976;2022-08-20T11:59:57;12.60;;;11.33;;
5965;SDS011;3009;43.224;27.976;2022-08-20T12:02:26;15.13;;;11.10;;
5965;SDS011;3009;43.224;27.976;2022-08-20T12:04:55;17.10;;;10.70;;
5965;SDS011;3009;43.224;27.976;2022-08-20T12:07:24;14.70;;;11.57;;
5965;SDS011;3009;43.224;27.976;2022-08-20T12:09:53;17.00;;;12.30;;
5965;SDS011;3009;43.224;27.976;2022-08-20T12:12:22;12.53;;;11.33;;
5965;SDS011;3009;43.224;27.976;2022-08-20T12:14:51;17.00;;;11.07;;
5965;SDS011;3009;43.224;27.976;2022-08-20T12:17:21;19.37;;;11.50;;
5965;SDS011;3009;43.224;27.976;2022-08-20T12:19:54;18.80;;;12.57;;
5965;SDS011;3009;43.224;27.976;2022-08-20T12:22:26;11.50;;;10.50;;
5965;SDS011;3009;43.224;27.976;2022-08-20T12:24:54;20.13;;;11.27;;
5965;SDS011;3009;43.224;27.976;2022-08-20T12:27:23;11.80;;;10.60;;
5965;SDS011;3009;43.224;27.976;2022-08-20T12:29:54;13.57;;;11.13;;
5965;SDS011;3009;43.224;27.976;2022-08-20T12:32:25;12.43;;;11.20;;
5965;SDS011;3009;43.224;27.976;2022-08-20T12:34:55;12.20;;;10.67;;
5965;SDS011;3009;43.224;27.976;2022-08-20T12:37:27;11.47;;;10.50;;
5965;SDS011;3009;43.224;27.976;2022-08-20T12:39:57;19.80;;;11.60;;
5965;SDS011;3009;43.224;27.976;2022-08-20T12:42:27;12.20;;;11.10;;
5965;SDS011;3009;43.224;27.976;2022-08-20T12:44:56;12.47;;;10.70;;
5965;SDS011;3009;43.224;27.976;2022-08-20T12:47:26;12.40;;;10.50;;
5965;SDS011;3009;43.224;27.976;2022-08-20T12:49:56;13.27;;;10.10;;
5965;SDS011;3009;43.224;27.976;2022-08-20T12:52:28;15.10;;;10.63;;
5965;SDS011;3009;43.224;27.976;2022-08-20T12:54:57;13.80;;;9.43;;
5965;SDS011;3009;43.224;27.976;2022-08-20T12:57:27;24.63;;;10.13;;
5965;SDS011;3009;43.224;27.976;2022-08-20T12:59:58;10.90;;;9.70;;
5965;SDS011;3009;43.224;27.976;2022-08-20T13:02:29;10.87;;;9.20;;
5965;SDS011;3009;43.224;27.976;2022-08-20T13:04:57;10.90;;;9.60;;
5965;SDS011;3009;43.224;27.976;2022-08-20T13:07:32;19.27;;;9.10;;
5965;SDS011;3009;43.224;27.976;2022-08-20T13:10:01;18.93;;;9.77;;
5965;SDS011;3009;43.224;27.976;2022-08-20T13:12:30;11.70;;;9.07;;
5965;SDS011;3009;43.224;27.976;2022-08-20T13:14:59;14.17;;;9.60;;
5965;SDS011;3009;43.224;27.976;2022-08-20T13:17:27;11.47;;;10.00;;
5965;SDS011;3009;43.224;27.976;2022-08-20T13:20:05;12.50;;;10.40;;
5965;SDS011;3009;43.224;27.976;2022-08-20T13:22:37;13.40;;;9.03;;
5965;SDS011;3009;43.224;27.976;2022-08-20T13:25:06;19.33;;;10.50;;
5965;SDS011;3009;43.224;27.976;2022-08-20T13:27:35;11.20;;;9.80;;
5965;SDS011;3009;43.224;27.976;2022-08-20T13:30:04;12.83;;;9.30;;
5965;SDS011;3009;43.224;27.976;2022-08-20T13:32:34;12.17;;;10.97;;
5965;SDS011;3009;43.224;27.976;2022-08-20T13:35:02;10.70;;;9.60;;
5965;SDS011;3009;43.224;27.976;2022-08-20T13:37:31;10.67;;;9.63;;
5965;SDS011;3009;43.224;27.976;2022-08-20T13:40:01;10.20;;;9.30;;
5965;SDS011;3009;43.224;27.976;2022-08-20T13:42:31;16.30;;;10.40;;
5965;SDS011;3009;43.224;27.976;2022-08-20T13:45:00;11.17;;;10.17;;
5965;SDS011;3009;43.224;27.976;2022-08-20T13:47:30;17.27;;;10.27;;
5965;SDS011;3009;43.224;27.976;2022-08-20T13:50:00;16.83;;;9.57;;
5965;SDS011;3009;43.224;27.976;2022-08-20T13:52:32;9.83;;;8.93;;
5965;SDS011;3009;43.224;27.976;2022-08-20T13:55:03;10.60;;;9.63;;
5965;SDS011;3009;43.224;27.976;2022-08-20T13:57:33;18.00;;;10.60;;
5965;SDS011;3009;43.224;27.976;2022-08-20T14:00:03;11.07;;;9.17;;
5965;SDS011;3009;43.224;27.976;2022-08-20T14:02:33;10.70;;;9.83;;
5965;SDS011;3009;43.224;27.976;2022-08-20T14:05:02;10.47;;;9.57;;
5965;SDS011;3009;43.224;27.976;2022-08-20T14:07:30;11.17;;;10.10;;
5965;SDS011;3009;43.224;27.976;2022-08-20T14:10:00;12.43;;;11.23;;
5965;SDS011;3009;43.224;27.976;2022-08-20T14:12:31;11.60;;;10.60;;
5965;SDS011;3009;43.224;27.976;2022-08-20T14:14:59;13.20;;;9.53;;
5965;SDS011;3009;43.224;27.976;2022-08-20T14:17:28;16.57;;;10.77;;
5965;SDS011;3009;43.224;27.976;2022-08-20T14:20:01;14.20;;;10.30;;
5965;SDS011;3009;43.224;27.976;2022-08-20T14:22:33;11.60;;;10.33;;
5965;SDS011;3009;43.224;27.976;2022-08-20T14:25:02;12.10;;;10.90;;
5965;SDS011;3009;43.224;27.976;2022-08-20T14:27:32;10.90;;;10.00;;
5965;SDS011;3009;43.224;27.976;2022-08-20T14:30:02;11.30;;;10.03;;
5965;SDS011;3009;43.224;27.976;2022-08-20T14:32:33;15.27;;;9.73;;
5965;SDS011;3009;43.224;27.976;2022-08-20T14:35:02;13.00;;;10.27;;
5965;SDS011;3009;43.224;27.976;2022-08-20T14:37:31;13.93;;;10.67;;
5965;SDS011;3009;43.224;27.976;2022-08-20T14:40:04;13.07;;;9.83;;
5965;SDS011;3009;43.224;27.976;2022-08-20T14:42:36;11.23;;;10.20;;
5965;SDS011;3009;43.224;27.976;2022-08-20T14:45:05;10.63;;;9.20;;
5965;SDS011;3009;43.224;27.976;2022-08-20T14:47:36;11.07;;;10.10;;
5965;SDS011;3009;43.224;27.976;2022-08-20T14:50:08;10.53;;;9.63;;
5965;SDS011;3009;43.224;27.976;2022-08-20T14:52:38;12.60;;;9.67;;
5965;SDS011;3009;43.224;27.976;2022-08-20T14:55:08;11.70;;;10.03;;
5965;SDS011;3009;43.224;27.976;2022-08-20T14:57:40;11.87;;;10.27;;
5965;SDS011;3009;43.224;27.976;2022-08-20T15:00:10;11.20;;;9.90;;
5965;SDS011;3009;43.224;27.976;2022-08-20T15:02:43;10.50;;;9.60;;
5965;SDS011;3009;43.224;27.976;2022-08-20T15:05:12;12.10;;;9.77;;